createdAt,value
2022-10-05T00:00:12.525Z,9.08
2022-10-05T00:01:12.517Z,9.04
2022-10-05T00:02:12.620Z,9.03
2022-10-05T00:03:12.495Z,9.03
2022-10-05T00:04:12.493Z,9.04
2022-10-05T00:05:12.519Z,9.01
2022-10-05T00:06:12.444Z,9.06
2022-10-05T00:07:12.448Z,9.04
2022-10-05T00:08:12.414Z,9.01
2022-10-05T00:09:12.418Z,9.01
2022-10-05T00:10:12.396Z,9.00
2022-10-05T00:11:12.385Z,8.98
2022-10-05T00:12:12.385Z,8.97
2022-10-05T00:13:12.364Z,8.98
2022-10-05T00:14:12.342Z,8.97
2022-10-05T00:15:12.335Z,8.98
2022-10-05T00:16:12.360Z,8.97
2022-10-05T00:17:12.325Z,8.96
2022-10-05T00:18:12.283Z,8.94
2022-10-05T00:19:12.278Z,8.94
2022-10-05T00:20:12.263Z,8.93
2022-10-05T00:21:12.254Z,8.91
2022-10-05T00:22:12.254Z,8.89
2022-10-05T00:23:12.241Z,8.88
2022-10-05T00:24:12.216Z,8.88
2022-10-05T00:25:12.210Z,8.86
2022-10-05T00:26:12.184Z,8.86
2022-10-05T00:27:12.194Z,8.86
2022-10-05T00:28:12.200Z,8.85
2022-10-05T00:29:12.153Z,8.85
2022-10-05T00:30:12.139Z,8.83
2022-10-05T00:31:12.148Z,8.82
2022-10-05T00:32:12.180Z,8.80
2022-10-05T00:33:12.102Z,8.79
2022-10-05T00:34:12.090Z,8.78
2022-10-05T00:35:12.064Z,8.76
2022-10-05T00:36:12.056Z,8.76
2022-10-05T00:37:12.054Z,8.71
2022-10-05T00:38:12.025Z,8.73
2022-10-05T00:39:12.020Z,8.70
2022-10-05T00:40:12.003Z,8.71
2022-10-05T00:41:11.991Z,8.70
2022-10-05T00:42:11.982Z,8.67
2022-10-05T00:43:11.971Z,8.68
2022-10-05T00:44:11.950Z,8.67
2022-10-05T00:45:11.943Z,8.65
2022-10-05T00:46:11.954Z,8.65
2022-10-05T00:47:11.935Z,8.63
2022-10-05T00:48:11.899Z,8.60
2022-10-05T00:49:11.895Z,8.58
2022-10-05T00:50:11.869Z,8.54
2022-10-05T00:51:11.865Z,8.55
2022-10-05T00:52:11.857Z,8.52
2022-10-05T00:53:11.834Z,8.49
2022-10-05T00:54:15.988Z,8.47
2022-10-05T00:55:12.837Z,8.45
2022-10-05T00:56:11.788Z,8.43
2022-10-05T00:57:11.792Z,8.40
2022-10-05T00:58:11.761Z,8.39
2022-10-05T00:59:11.753Z,8.37
2022-10-05T01:00:11.738Z,8.34
2022-10-05T01:01:11.775Z,8.29
2022-10-05T01:02:11.889Z,8.28
2022-10-05T01:03:11.698Z,8.27
2022-10-05T01:04:11.690Z,8.27
2022-10-05T01:05:11.685Z,8.25
2022-10-05T01:06:11.657Z,8.25
2022-10-05T01:07:11.669Z,8.22
2022-10-05T01:08:11.635Z,8.22
2022-10-05T01:09:11.626Z,8.21
2022-10-05T01:10:11.613Z,8.20
2022-10-05T01:11:11.605Z,8.20
2022-10-05T01:12:11.597Z,8.18
2022-10-05T01:13:11.582Z,8.17
2022-10-05T01:14:11.555Z,8.13
2022-10-05T01:15:11.549Z,8.12
2022-10-05T01:16:11.568Z,8.09
2022-10-05T01:17:11.586Z,8.09
2022-10-05T01:18:11.496Z,8.06
2022-10-05T01:19:11.502Z,8.04
2022-10-05T01:20:11.475Z,8.02
2022-10-05T01:21:11.475Z,8.00
2022-10-05T01:22:21.468Z,7.96
2022-10-05T01:23:11.437Z,7.94
2022-10-05T01:24:11.425Z,7.94
2022-10-05T01:25:11.427Z,7.92
2022-10-05T01:26:11.398Z,7.91
2022-10-05T01:27:11.404Z,7.91
2022-10-05T01:28:11.436Z,7.92
2022-10-05T01:29:11.376Z,7.91
2022-10-05T01:30:11.348Z,7.88
2022-10-05T01:31:11.386Z,7.86
2022-10-05T01:32:11.335Z,7.85
2022-10-05T01:33:11.324Z,7.84
2022-10-05T01:34:11.695Z,7.81
2022-10-05T01:35:11.282Z,7.77
2022-10-05T01:36:11.258Z,7.76
2022-10-05T01:37:11.277Z,7.73
2022-10-05T01:38:11.240Z,7.71
2022-10-05T01:39:11.238Z,7.70
2022-10-05T01:40:11.228Z,7.69
2022-10-05T01:41:11.208Z,7.66
2022-10-05T01:42:11.213Z,7.66
2022-10-05T01:43:11.182Z,7.62
2022-10-05T01:44:11.164Z,7.60
2022-10-05T01:45:11.178Z,7.58
2022-10-05T01:46:11.196Z,7.55
2022-10-05T01:47:11.133Z,7.52
2022-10-05T01:48:11.134Z,7.51
2022-10-05T01:49:11.093Z,7.50
2022-10-05T01:50:11.082Z,7.47
2022-10-05T01:51:11.098Z,7.45
2022-10-05T01:52:11.061Z,7.45
2022-10-05T01:53:11.047Z,7.44
2022-10-05T01:54:11.041Z,7.42
2022-10-05T01:55:11.025Z,7.41
2022-10-05T01:56:11.017Z,7.39
2022-10-05T01:57:10.992Z,7.37
2022-10-05T01:58:10.984Z,7.36
2022-10-05T01:59:10.978Z,7.34
2022-10-05T02:00:10.956Z,7.36
2022-10-05T02:01:10.997Z,7.36
2022-10-05T02:02:11.002Z,7.36
2022-10-05T02:03:10.925Z,7.34
2022-10-05T02:04:10.901Z,7.33
2022-10-05T02:05:10.893Z,7.32
2022-10-05T02:06:10.886Z,7.32
2022-10-05T02:07:10.869Z,7.30
2022-10-05T02:08:10.851Z,7.29
2022-10-05T02:09:10.845Z,7.29
2022-10-05T02:10:10.821Z,7.26
2022-10-05T02:11:10.841Z,7.26
2022-10-05T02:12:10.803Z,7.26
2022-10-05T02:13:10.791Z,7.24
2022-10-05T02:14:10.773Z,7.26
2022-10-05T02:15:10.773Z,7.26
2022-10-05T02:16:10.830Z,7.24
2022-10-05T02:17:10.751Z,7.24
2022-10-05T02:18:10.719Z,7.23
2022-10-05T02:19:10.711Z,7.23
2022-10-05T02:20:10.699Z,7.19
2022-10-05T02:21:10.702Z,7.18
2022-10-05T02:22:10.673Z,7.18
2022-10-05T02:23:10.659Z,7.15
2022-10-05T02:24:10.641Z,7.14
2022-10-05T02:25:10.628Z,7.15
2022-10-05T02:26:10.628Z,7.14
2022-10-05T02:27:10.642Z,7.12
2022-10-05T02:28:10.671Z,7.11
2022-10-05T02:29:10.582Z,7.11
2022-10-05T02:30:16.243Z,7.11
2022-10-05T02:31:11.627Z,7.07
2022-10-05T02:32:10.553Z,7.07
2022-10-05T02:33:10.530Z,7.07
2022-10-05T02:34:10.509Z,7.08
2022-10-05T02:35:10.514Z,7.07
2022-10-05T02:36:10.488Z,7.05
2022-10-05T02:37:10.480Z,7.01
2022-10-05T02:38:10.466Z,7.00
2022-10-05T02:39:10.454Z,6.99
2022-10-05T02:40:10.437Z,6.96
2022-10-05T02:41:10.440Z,6.97
2022-10-05T02:42:10.409Z,6.96
2022-10-05T02:43:10.410Z,6.96
2022-10-05T02:44:10.387Z,6.96
2022-10-05T02:45:10.368Z,6.94
2022-10-05T02:46:10.455Z,6.93
2022-10-05T02:47:10.359Z,6.90
2022-10-05T02:48:10.354Z,6.87
2022-10-05T02:49:10.317Z,6.87
2022-10-05T02:50:10.295Z,6.87
2022-10-05T02:51:10.325Z,6.87
2022-10-05T02:52:10.274Z,6.89
2022-10-05T02:53:10.264Z,6.90
2022-10-05T02:54:10.263Z,6.90
2022-10-05T02:55:10.254Z,6.89
2022-10-05T02:56:10.236Z,6.86
2022-10-05T02:57:10.214Z,6.82
2022-10-05T02:58:10.198Z,6.81
2022-10-05T02:59:10.196Z,6.79
2022-10-05T03:00:10.177Z,6.76
2022-10-05T03:01:10.239Z,6.76
2022-10-05T03:02:10.171Z,6.73
2022-10-05T03:03:10.145Z,6.72
2022-10-05T03:04:10.127Z,6.69
2022-10-05T03:05:10.103Z,6.65
2022-10-05T03:06:10.110Z,6.65
2022-10-05T03:07:10.083Z,6.64
2022-10-05T03:08:10.070Z,6.64
2022-10-05T03:09:10.056Z,6.61
2022-10-05T03:10:10.045Z,6.60
2022-10-05T03:11:10.044Z,6.58
2022-10-05T03:12:10.013Z,6.57
2022-10-05T03:13:10.012Z,6.55
2022-10-05T03:14:09.993Z,6.54
2022-10-05T03:15:09.991Z,6.53
2022-10-05T03:16:10.020Z,6.51
2022-10-05T03:17:09.970Z,6.50
2022-10-05T03:18:09.947Z,6.48
2022-10-05T03:19:09.956Z,6.48
2022-10-05T03:20:09.932Z,6.48
2022-10-05T03:21:09.902Z,6.46
2022-10-05T03:22:09.890Z,6.46
2022-10-05T03:23:09.882Z,6.45
2022-10-05T03:24:09.870Z,6.43
2022-10-05T03:25:09.861Z,6.43
2022-10-05T03:26:09.838Z,6.42
2022-10-05T03:27:09.828Z,6.42
2022-10-05T03:28:09.869Z,6.40
2022-10-05T03:29:09.802Z,6.40
2022-10-05T03:30:09.799Z,6.42
2022-10-05T03:31:09.813Z,6.42
2022-10-05T03:32:09.758Z,6.43
2022-10-05T03:33:09.747Z,6.43
2022-10-05T03:34:09.729Z,6.43
2022-10-05T03:35:09.768Z,6.42
2022-10-05T03:36:09.711Z,6.42
2022-10-05T03:37:09.688Z,6.42
2022-10-05T03:38:09.684Z,6.40
2022-10-05T03:39:09.657Z,6.38
2022-10-05T03:40:09.675Z,6.38
2022-10-05T03:41:09.639Z,6.36
2022-10-05T03:42:09.627Z,6.35
2022-10-05T03:43:09.606Z,6.35
2022-10-05T03:44:09.620Z,6.35
2022-10-05T03:45:09.622Z,6.33
2022-10-05T03:46:09.656Z,6.36
2022-10-05T03:47:09.579Z,6.35
2022-10-05T03:48:09.559Z,6.35
2022-10-05T03:49:09.558Z,6.33
2022-10-05T03:50:09.547Z,6.32
2022-10-05T03:51:09.506Z,6.28
2022-10-05T03:52:09.501Z,6.27
2022-10-05T03:53:09.474Z,6.28
2022-10-05T03:54:09.476Z,6.28
2022-10-05T03:55:09.464Z,6.27
2022-10-05T03:56:09.444Z,6.27
2022-10-05T03:57:09.437Z,6.28
2022-10-05T03:58:09.440Z,6.25
2022-10-05T03:59:09.423Z,6.24
2022-10-05T04:00:09.395Z,6.24
2022-10-05T04:01:09.441Z,6.21
2022-10-05T04:02:09.421Z,6.20
2022-10-05T04:03:09.355Z,6.17
2022-10-05T04:04:09.372Z,6.14
2022-10-05T04:05:09.325Z,6.14
2022-10-05T04:06:09.326Z,6.13
2022-10-05T04:07:09.294Z,6.11
2022-10-05T04:08:09.293Z,6.08
2022-10-05T04:09:09.306Z,6.08
2022-10-05T04:10:09.269Z,6.08
2022-10-05T04:11:09.264Z,6.06
2022-10-05T04:12:09.249Z,6.08
2022-10-05T04:13:09.218Z,6.08
2022-10-05T04:14:09.224Z,6.06
2022-10-05T04:15:09.205Z,6.06
2022-10-05T04:16:09.236Z,6.06
2022-10-05T04:17:09.172Z,6.05
2022-10-05T04:18:09.153Z,6.03
2022-10-05T04:19:09.154Z,6.03
2022-10-05T04:20:09.133Z,6.02
2022-10-05T04:21:09.114Z,5.99
2022-10-05T04:22:09.103Z,5.96
2022-10-05T04:23:09.095Z,5.96
2022-10-05T04:24:09.097Z,5.93
2022-10-05T04:25:09.095Z,5.92
2022-10-05T04:26:09.068Z,5.90
2022-10-05T04:27:09.043Z,5.90
2022-10-05T04:28:09.116Z,5.88
2022-10-05T04:29:09.020Z,5.88
2022-10-05T04:30:09.010Z,5.88
2022-10-05T04:31:09.034Z,5.87
2022-10-05T04:32:08.982Z,5.85
2022-10-05T04:33:08.961Z,5.84
2022-10-05T04:34:08.980Z,5.84
2022-10-05T04:35:08.930Z,5.83
2022-10-05T04:36:08.929Z,5.83
2022-10-05T04:37:08.911Z,5.83
2022-10-05T04:38:08.900Z,5.83
2022-10-05T04:39:08.893Z,5.81
2022-10-05T04:40:08.869Z,5.81
2022-10-05T04:41:08.860Z,5.83
2022-10-05T04:42:08.850Z,5.81
2022-10-05T04:43:08.819Z,5.83
2022-10-05T04:44:08.830Z,5.81
2022-10-05T04:45:08.805Z,5.81
2022-10-05T04:46:08.792Z,5.83
2022-10-05T04:47:08.808Z,5.83
2022-10-05T04:48:08.773Z,5.84
2022-10-05T04:49:08.762Z,5.84
2022-10-05T04:50:08.737Z,5.84
2022-10-05T04:51:08.717Z,5.85
2022-10-05T04:52:08.706Z,5.85
2022-10-05T04:53:08.689Z,5.88
2022-10-05T04:54:08.698Z,5.85
2022-10-05T04:55:08.676Z,5.87
2022-10-05T04:56:08.661Z,5.88
2022-10-05T04:57:08.640Z,5.87
2022-10-05T04:58:08.635Z,5.88
2022-10-05T04:59:08.627Z,5.90
2022-10-05T05:00:08.605Z,5.93
2022-10-05T05:01:08.666Z,5.95
2022-10-05T05:02:08.590Z,5.98
2022-10-05T05:03:08.567Z,5.98
2022-10-05T05:04:08.619Z,6.06
2022-10-05T05:05:08.539Z,6.10
2022-10-05T05:06:22.866Z,6.13
2022-10-05T05:07:09.514Z,6.14
2022-10-05T05:08:08.502Z,6.17
2022-10-05T05:09:08.497Z,6.24
2022-10-05T05:10:08.475Z,6.32
2022-10-05T05:11:11.326Z,6.36
2022-10-05T05:12:09.457Z,6.40
2022-10-05T05:13:08.432Z,6.46
2022-10-05T05:14:08.434Z,6.50
2022-10-05T05:15:08.410Z,6.54
2022-10-05T05:16:08.465Z,6.61
2022-10-05T05:17:12.299Z,6.72
2022-10-05T05:18:08.374Z,6.78
2022-10-05T05:19:08.365Z,6.83
2022-10-05T05:20:08.353Z,6.89
2022-10-05T05:21:08.336Z,6.93
2022-10-05T05:22:08.326Z,6.96
2022-10-05T05:23:08.302Z,7.01
2022-10-05T05:24:08.302Z,7.05
2022-10-05T05:25:08.286Z,7.11
2022-10-05T05:26:08.263Z,7.18
2022-10-05T05:27:08.253Z,7.19
2022-10-05T05:28:08.304Z,7.24
2022-10-05T05:29:08.233Z,7.33
2022-10-05T05:30:08.222Z,7.42
2022-10-05T05:31:08.272Z,7.45
2022-10-05T05:32:08.191Z,7.51
2022-10-05T05:33:08.170Z,7.52
2022-10-05T05:34:08.172Z,7.54
2022-10-05T05:35:08.150Z,7.60
2022-10-05T05:36:08.131Z,7.62
2022-10-05T05:37:08.122Z,7.67
2022-10-05T05:38:08.120Z,7.71
2022-10-05T05:39:08.100Z,7.76
2022-10-05T05:40:08.079Z,7.79
2022-10-05T05:41:08.059Z,7.82
2022-10-05T05:42:08.064Z,7.88
2022-10-05T05:43:08.064Z,7.91
2022-10-05T05:44:08.044Z,7.99
2022-10-05T05:45:08.019Z,8.02
2022-10-05T05:46:08.183Z,8.06
2022-10-05T05:47:08.440Z,8.09
2022-10-05T05:48:07.988Z,8.13
2022-10-05T05:49:07.970Z,8.14
2022-10-05T05:50:08.027Z,8.21
2022-10-05T05:51:07.939Z,8.21
2022-10-05T05:52:07.937Z,8.24
2022-10-05T05:53:07.938Z,8.31
2022-10-05T05:54:07.906Z,8.39
2022-10-05T05:55:07.888Z,8.46
2022-10-05T05:56:07.881Z,8.55
2022-10-05T05:57:07.857Z,8.61
2022-10-05T05:58:07.868Z,8.70
2022-10-05T05:59:07.839Z,8.83
2022-10-05T06:00:07.830Z,8.89
2022-10-05T06:01:20.304Z,8.96
2022-10-05T06:02:08.875Z,8.98
2022-10-05T06:03:07.889Z,9.03
2022-10-05T06:04:07.778Z,9.04
2022-10-05T06:05:07.814Z,9.13
2022-10-05T06:06:07.770Z,9.32
2022-10-05T06:07:07.736Z,9.62
2022-10-05T06:08:07.749Z,9.95
2022-10-05T06:09:07.706Z,10.24
2022-10-05T06:10:07.699Z,10.32
2022-10-05T06:11:07.676Z,10.31
2022-10-05T06:12:07.665Z,10.32
2022-10-05T06:13:07.667Z,10.31
2022-10-05T06:14:07.638Z,10.35
2022-10-05T06:15:07.631Z,10.42
2022-10-05T06:16:07.729Z,10.49
2022-10-05T06:17:07.620Z,10.55
2022-10-05T06:18:07.606Z,10.55
2022-10-05T06:19:07.575Z,10.57
2022-10-05T06:20:07.576Z,10.58
2022-10-05T06:21:07.545Z,10.62
2022-10-05T06:22:07.549Z,10.66
2022-10-05T06:23:07.525Z,10.73
2022-10-05T06:24:07.508Z,10.93
2022-10-05T06:25:07.498Z,11.11
2022-10-05T06:26:10.697Z,11.20
2022-10-05T06:27:07.488Z,11.27
2022-10-05T06:28:07.523Z,11.41
2022-10-05T06:29:07.437Z,11.53
2022-10-05T06:30:07.437Z,11.53
2022-10-05T06:31:07.448Z,11.51
2022-10-05T06:32:07.440Z,11.51
2022-10-05T06:33:07.392Z,11.51
2022-10-05T06:34:07.379Z,11.51
2022-10-05T06:35:07.371Z,11.53
2022-10-05T06:36:07.356Z,11.53
2022-10-05T06:37:07.348Z,11.53
2022-10-05T06:38:07.327Z,11.56
2022-10-05T06:39:07.306Z,11.62
2022-10-05T06:40:07.305Z,11.69
2022-10-05T06:41:07.284Z,11.78
2022-10-05T06:42:07.296Z,11.87
2022-10-05T06:43:07.259Z,12.03
2022-10-05T06:44:07.244Z,12.23
2022-10-05T06:45:07.248Z,12.51
2022-10-05T06:46:07.326Z,12.79
2022-10-05T06:47:07.230Z,13.03
2022-10-05T06:48:07.197Z,13.19
2022-10-05T06:49:07.184Z,13.29
2022-10-05T06:50:07.173Z,13.35
2022-10-05T06:51:07.151Z,13.38
2022-10-05T06:52:07.154Z,13.47
2022-10-05T06:53:07.158Z,13.57
2022-10-05T06:54:07.130Z,13.69
2022-10-05T06:55:09.571Z,13.75
2022-10-05T06:56:08.096Z,13.86
2022-10-05T06:57:07.501Z,13.90
2022-10-05T06:58:07.066Z,13.88
2022-10-05T06:59:07.045Z,13.90
2022-10-05T07:00:07.037Z,13.93
2022-10-05T07:01:07.053Z,13.93
2022-10-05T07:02:07.059Z,13.91
2022-10-05T07:03:07.012Z,13.91
2022-10-05T07:04:06.992Z,13.90
2022-10-05T07:05:06.967Z,13.90
2022-10-05T07:06:06.954Z,13.90
2022-10-05T07:07:06.945Z,13.90
2022-10-05T07:08:06.924Z,13.88
2022-10-05T07:09:06.924Z,13.91
2022-10-05T07:10:06.919Z,13.94
2022-10-05T07:11:06.889Z,13.99
2022-10-05T07:12:07.457Z,14.02
2022-10-05T07:13:06.874Z,14.04
2022-10-05T07:14:06.848Z,14.06
2022-10-05T07:15:06.843Z,14.20
2022-10-05T07:16:06.872Z,14.44
2022-10-05T07:17:06.833Z,14.95
2022-10-05T07:18:06.819Z,15.52
2022-10-05T07:19:06.784Z,16.06
2022-10-05T07:20:06.773Z,16.48
2022-10-05T07:21:06.763Z,16.69
2022-10-05T07:23:06.726Z,17.17
2022-10-05T07:24:06.727Z,17.54
2022-10-05T07:25:06.712Z,17.87
2022-10-05T07:26:06.696Z,18.14
2022-10-05T07:27:06.783Z,18.23
2022-10-05T07:28:06.784Z,18.25
2022-10-05T07:29:06.742Z,18.31
2022-10-05T07:30:06.636Z,18.41
2022-10-05T07:31:06.678Z,18.56
2022-10-05T07:32:06.614Z,18.66
2022-10-05T07:33:06.606Z,18.86
2022-10-05T07:34:06.596Z,19.06
2022-10-05T07:35:06.566Z,19.27
2022-10-05T07:36:06.558Z,19.47
2022-10-05T07:37:06.557Z,19.75
2022-10-05T07:38:06.534Z,20.08
2022-10-05T07:39:06.546Z,20.37
2022-10-05T07:40:06.508Z,20.53
2022-10-05T07:41:06.498Z,20.66
2022-10-05T07:42:06.487Z,20.61
2022-10-05T07:43:06.476Z,20.58
2022-10-05T07:44:11.660Z,20.58
2022-10-05T07:45:07.466Z,20.61
2022-10-05T07:46:06.492Z,20.78
2022-10-05T07:47:06.424Z,20.88
2022-10-05T07:48:06.431Z,20.91
2022-10-05T07:49:06.397Z,20.97
2022-10-05T07:50:06.377Z,20.96
2022-10-05T07:51:06.374Z,21.05
2022-10-05T07:52:06.345Z,21.21
2022-10-05T07:53:06.359Z,21.38
2022-10-05T07:54:06.331Z,21.56
2022-10-05T07:55:06.325Z,21.71
2022-10-05T07:56:06.301Z,21.94
2022-10-05T07:57:06.288Z,22.21
2022-10-05T07:58:06.286Z,22.48
2022-10-05T07:59:06.268Z,22.75
2022-10-05T08:00:06.252Z,22.97
2022-10-05T08:01:06.243Z,23.09
2022-10-05T08:02:06.415Z,23.11
2022-10-05T08:03:06.301Z,23.29
2022-10-05T08:04:06.198Z,23.45
2022-10-05T08:05:06.188Z,23.59
2022-10-05T08:06:06.169Z,23.79
2022-10-05T08:07:06.159Z,24.00
2022-10-05T08:08:06.222Z,24.08
2022-10-05T08:09:06.128Z,24.11
2022-10-05T08:10:06.116Z,24.00
2022-10-05T08:11:06.136Z,23.90
2022-10-05T08:12:06.107Z,23.94
2022-10-05T08:13:06.122Z,23.82
2022-10-05T08:14:06.088Z,23.69
2022-10-05T08:15:06.057Z,23.57
2022-10-05T08:16:06.104Z,23.53
2022-10-05T08:17:06.032Z,23.42
2022-10-05T08:18:06.048Z,23.29
2022-10-05T08:19:06.022Z,23.15
2022-10-05T08:20:05.978Z,23.01
2022-10-05T08:21:05.976Z,23.00
2022-10-05T08:22:05.973Z,22.93
2022-10-05T08:23:15.150Z,22.79
2022-10-05T08:24:05.931Z,22.67
2022-10-05T08:25:05.927Z,22.51
2022-10-05T08:26:05.920Z,22.24
2022-10-05T08:27:05.898Z,22.06
2022-10-05T08:28:05.931Z,21.91
2022-10-05T08:29:09.139Z,21.74
2022-10-05T08:30:06.862Z,21.55
2022-10-05T08:31:05.884Z,21.40
2022-10-05T08:32:05.839Z,21.28
2022-10-05T08:33:05.837Z,21.16
2022-10-05T08:34:05.801Z,21.09
2022-10-05T08:35:05.792Z,21.12
2022-10-05T08:36:05.791Z,21.05
2022-10-05T08:37:05.784Z,20.98
2022-10-05T08:38:05.791Z,20.91
2022-10-05T08:39:05.732Z,20.82
2022-10-05T08:40:05.725Z,20.75
2022-10-05T08:41:05.714Z,20.68
2022-10-05T08:42:05.776Z,20.64
2022-10-05T08:43:05.700Z,20.66
2022-10-05T08:44:05.670Z,20.69
2022-10-05T08:45:05.662Z,20.71
2022-10-05T08:46:05.699Z,20.78
2022-10-05T08:47:05.643Z,20.83
2022-10-05T08:48:05.631Z,20.88
2022-10-05T08:49:05.614Z,20.97
2022-10-05T08:50:05.583Z,21.00
2022-10-05T08:51:05.574Z,20.98
2022-10-05T08:52:05.573Z,21.03
2022-10-05T08:53:05.560Z,21.09
2022-10-05T08:54:05.544Z,21.19
2022-10-05T08:55:05.534Z,21.36
2022-10-05T08:56:05.507Z,21.49
2022-10-05T08:57:05.604Z,21.56
2022-10-05T08:58:05.488Z,21.55
2022-10-05T08:59:05.477Z,21.55
2022-10-05T09:00:05.472Z,21.53
2022-10-05T09:01:05.502Z,21.49
2022-10-05T09:02:05.511Z,21.52
2022-10-05T09:03:05.423Z,21.67
2022-10-05T09:04:05.403Z,21.83
2022-10-05T09:05:05.394Z,22.14
2022-10-05T09:06:05.374Z,22.45
2022-10-05T09:07:05.390Z,22.70
2022-10-05T09:08:05.355Z,22.91
2022-10-05T09:09:05.351Z,23.09
2022-10-05T09:10:05.357Z,23.29
2022-10-05T09:11:05.323Z,23.31
2022-10-05T09:12:05.315Z,23.29
2022-10-05T09:13:05.293Z,23.22
2022-10-05T09:14:05.291Z,23.25
2022-10-05T09:15:24.856Z,23.21
2022-10-05T09:16:06.334Z,23.07
2022-10-05T09:17:05.266Z,22.94
2022-10-05T09:18:05.226Z,22.81
2022-10-05T09:19:05.221Z,22.63
2022-10-05T09:20:05.197Z,22.42
2022-10-05T09:21:05.197Z,22.21
2022-10-05T09:22:05.185Z,22.05
2022-10-05T09:23:05.183Z,21.90
2022-10-05T09:24:05.156Z,21.74
2022-10-05T09:25:05.158Z,21.59
2022-10-05T09:26:05.116Z,21.48
2022-10-05T09:27:05.122Z,21.34
2022-10-05T09:28:05.157Z,21.30
2022-10-05T09:29:05.089Z,21.34
2022-10-05T09:30:05.086Z,21.37
2022-10-05T09:31:05.156Z,21.40
2022-10-05T09:32:05.057Z,21.45
2022-10-05T09:33:05.048Z,21.58
2022-10-05T09:34:05.029Z,21.74
2022-10-05T09:35:05.098Z,21.89
2022-10-05T09:36:04.990Z,22.06
2022-10-05T09:37:04.987Z,22.24
2022-10-05T09:38:04.973Z,22.44
2022-10-05T09:39:04.970Z,22.69
2022-10-05T09:40:05.086Z,22.84
2022-10-05T09:41:04.926Z,22.97
2022-10-05T09:42:04.923Z,23.06
2022-10-05T09:43:04.906Z,23.07
2022-10-05T09:44:04.890Z,23.11
2022-10-05T09:45:04.890Z,23.11
2022-10-05T09:46:04.900Z,23.14
2022-10-05T09:47:04.847Z,23.12
2022-10-05T09:48:04.839Z,23.11
2022-10-05T09:49:04.820Z,23.03
2022-10-05T09:50:04.826Z,22.93
2022-10-05T09:51:04.799Z,22.89
2022-10-05T09:52:04.788Z,22.89
2022-10-05T09:53:04.775Z,22.94
2022-10-05T09:54:04.748Z,22.96
2022-10-05T09:55:04.747Z,22.91
2022-10-05T09:56:04.728Z,22.88
2022-10-05T09:57:04.734Z,22.84
2022-10-05T09:58:04.697Z,22.79
2022-10-05T09:59:04.689Z,22.74
2022-10-05T10:00:04.756Z,22.67
2022-10-05T10:01:09.722Z,22.64
2022-10-05T10:02:05.723Z,22.56
2022-10-05T10:03:04.948Z,22.52
2022-10-05T10:04:04.627Z,22.57
2022-10-05T10:05:04.610Z,22.66
2022-10-05T10:06:04.624Z,22.81
2022-10-05T10:07:04.613Z,22.88
2022-10-05T10:08:04.574Z,22.89
2022-10-05T10:09:04.559Z,22.91
2022-10-05T10:10:04.562Z,22.96
2022-10-05T10:11:04.553Z,22.96
2022-10-05T10:12:04.531Z,22.94
2022-10-05T10:13:04.514Z,23.00
2022-10-05T10:14:04.490Z,23.01
2022-10-05T10:15:04.496Z,23.06
2022-10-05T10:16:04.561Z,23.15
2022-10-05T10:17:04.459Z,23.22
2022-10-05T10:18:04.442Z,23.31
2022-10-05T10:19:04.429Z,23.38
2022-10-05T10:20:04.411Z,23.45
2022-10-05T10:21:04.417Z,23.52
2022-10-05T10:22:04.398Z,23.57
2022-10-05T10:23:04.383Z,23.67
2022-10-05T10:24:04.359Z,23.74
2022-10-05T10:25:04.362Z,23.81
2022-10-05T10:26:04.345Z,23.86
2022-10-05T10:27:04.354Z,23.86
2022-10-05T10:28:04.352Z,23.86
2022-10-05T10:29:04.303Z,23.86
2022-10-05T10:30:04.280Z,23.89
2022-10-05T10:31:04.364Z,23.89
2022-10-05T10:32:04.264Z,23.86
2022-10-05T10:33:59.513Z,23.77
2022-10-05T10:34:59.503Z,23.71
2022-10-05T10:36:01.643Z,23.62
2022-10-05T10:37:00.485Z,23.52
2022-10-05T10:37:59.466Z,23.44
2022-10-05T10:38:59.454Z,23.35
2022-10-05T10:39:59.443Z,23.29
2022-10-05T10:40:59.440Z,23.22
2022-10-05T10:41:59.404Z,23.21
2022-10-05T10:42:59.406Z,23.21
2022-10-05T10:43:59.386Z,23.19
2022-10-05T10:44:59.374Z,23.21
2022-10-05T10:45:59.429Z,23.25
2022-10-05T10:46:59.399Z,23.26
2022-10-05T10:47:59.337Z,23.26
2022-10-05T10:48:59.323Z,23.29
2022-10-05T10:49:59.316Z,23.29
2022-10-05T10:50:59.306Z,23.29
2022-10-05T10:51:59.293Z,23.32
2022-10-05T10:52:59.284Z,23.35
2022-10-05T10:53:59.256Z,23.39
2022-10-05T10:54:59.251Z,23.44
2022-10-05T10:55:59.244Z,23.53
2022-10-05T10:56:59.235Z,23.60
2022-10-05T10:57:59.206Z,23.67
2022-10-05T10:58:59.197Z,23.64
2022-10-05T10:59:59.175Z,23.71
2022-10-05T11:00:59.186Z,23.72
2022-10-05T11:01:59.240Z,23.78
2022-10-05T11:02:59.199Z,23.82
2022-10-05T11:03:59.265Z,23.90
2022-10-05T11:04:59.116Z,23.97
2022-10-05T11:05:59.106Z,24.02
2022-10-05T11:06:59.093Z,24.05
2022-10-05T11:07:59.069Z,24.12
2022-10-05T11:08:59.077Z,24.19
2022-10-05T11:09:59.044Z,24.27
2022-10-05T11:10:59.046Z,24.36
2022-10-05T11:11:59.019Z,24.39
2022-10-05T11:12:59.008Z,24.46
2022-10-05T11:13:58.994Z,24.46
2022-10-05T11:14:59.011Z,24.45
2022-10-05T11:15:59.083Z,24.45
2022-10-05T11:16:58.957Z,24.44
2022-10-05T11:17:58.951Z,24.44
2022-10-05T11:18:58.931Z,24.45
2022-10-05T11:20:04.015Z,24.41
2022-10-05T11:20:59.921Z,24.39
2022-10-05T11:21:58.899Z,24.39
2022-10-05T11:22:58.885Z,24.42
2022-10-05T11:23:58.879Z,24.45
2022-10-05T11:24:58.863Z,24.48
2022-10-05T11:25:58.851Z,24.51
2022-10-05T11:26:58.827Z,24.53
2022-10-05T11:27:58.850Z,24.53
2022-10-05T11:28:58.834Z,24.51
2022-10-05T11:29:58.792Z,24.51
2022-10-05T11:30:58.816Z,24.49
2022-10-05T11:31:58.781Z,24.46
2022-10-05T11:32:58.751Z,24.39
2022-10-05T11:33:58.732Z,24.39
2022-10-05T11:34:58.741Z,24.36
2022-10-05T11:35:58.722Z,24.34
2022-10-05T11:36:58.700Z,24.33
2022-10-05T11:37:58.691Z,24.27
2022-10-05T11:38:58.671Z,24.26
2022-10-05T11:39:58.674Z,24.21
2022-10-05T11:40:58.668Z,24.15
2022-10-05T11:41:58.638Z,24.09
2022-10-05T11:42:58.642Z,24.04
2022-10-05T11:44:00.303Z,23.97
2022-10-05T11:44:58.618Z,23.90
2022-10-05T11:45:58.605Z,23.86
2022-10-05T11:46:58.569Z,23.84
2022-10-05T11:47:58.564Z,23.78
2022-10-05T11:48:58.541Z,23.77
2022-10-05T11:49:58.553Z,23.77
2022-10-05T11:50:58.520Z,23.78
2022-10-05T11:51:58.502Z,23.79
2022-10-05T11:52:58.508Z,23.81
2022-10-05T11:53:58.491Z,23.84
2022-10-05T11:55:10.505Z,23.86
2022-10-05T11:56:55.162Z,23.92
2022-10-05T11:57:55.133Z,23.94
2022-10-05T11:58:55.114Z,23.97
2022-10-05T11:59:55.105Z,24.05
2022-10-05T12:00:55.084Z,24.11
2022-10-05T12:01:55.064Z,24.16
2022-10-05T12:02:55.150Z,24.23
2022-10-05T12:03:55.135Z,24.29
2022-10-05T12:04:55.068Z,24.29
2022-10-05T12:05:55.025Z,24.31
2022-10-05T12:06:55.007Z,24.29
2022-10-05T12:07:54.994Z,24.23
2022-10-05T12:08:54.987Z,24.14
2022-10-05T12:09:54.976Z,24.11
2022-10-05T12:10:54.957Z,24.05
2022-10-05T12:11:57.870Z,23.99
2022-10-05T12:12:54.979Z,23.93
2022-10-05T12:13:54.929Z,23.90
2022-10-05T12:14:54.915Z,23.84
2022-10-05T12:15:54.944Z,23.82
2022-10-05T12:16:54.888Z,23.84
2022-10-05T12:17:54.866Z,23.86
2022-10-05T12:18:54.848Z,23.86
2022-10-05T12:19:54.837Z,23.86
2022-10-05T12:20:54.829Z,23.84
2022-10-05T12:21:54.830Z,23.81
2022-10-05T12:22:54.795Z,23.79
2022-10-05T12:23:54.790Z,23.82
2022-10-05T12:24:54.784Z,23.81
2022-10-05T12:25:54.759Z,23.79
2022-10-05T12:26:54.748Z,23.81
2022-10-05T12:27:54.812Z,23.82
2022-10-05T12:28:54.717Z,23.89
2022-10-05T12:29:54.717Z,23.90
2022-10-05T12:30:54.689Z,23.92
2022-10-05T12:31:54.702Z,23.96
2022-10-05T12:32:58.131Z,23.99
2022-10-05T12:33:55.667Z,24.02
2022-10-05T12:35:01.115Z,24.02
2022-10-05T12:35:55.628Z,24.04
2022-10-05T12:37:09.794Z,24.00
2022-10-05T12:37:55.598Z,23.96
2022-10-05T12:38:54.597Z,23.93
2022-10-05T12:39:54.580Z,23.94
2022-10-05T12:40:54.573Z,23.96
2022-10-05T12:41:54.561Z,23.92
2022-10-05T12:42:54.539Z,23.87
2022-10-05T12:43:54.520Z,23.82
2022-10-05T12:44:54.511Z,23.74
2022-10-05T12:45:54.526Z,23.64
2022-10-05T12:46:54.499Z,23.60
2022-10-05T12:47:54.470Z,23.50
2022-10-05T12:48:54.473Z,23.44
2022-10-05T12:49:54.439Z,23.37
2022-10-05T12:50:54.455Z,23.29
2022-10-05T12:51:54.443Z,23.22
2022-10-05T12:52:54.411Z,23.18
2022-10-05T12:53:54.388Z,23.18
2022-10-05T12:54:54.392Z,23.15
2022-10-05T12:55:54.375Z,23.14
2022-10-05T12:56:54.372Z,23.07
2022-10-05T12:57:54.362Z,23.04
2022-10-05T12:58:54.362Z,23.04
2022-10-05T12:59:54.320Z,23.04
2022-10-05T13:00:54.361Z,23.03
2022-10-05T13:01:54.346Z,23.03
2022-10-05T13:02:54.297Z,23.04
2022-10-05T13:03:54.264Z,23.04
2022-10-05T13:04:54.363Z,23.01
2022-10-05T13:05:54.922Z,23.04
2022-10-05T13:06:54.232Z,23.04